createdAt,value
2022-10-29T00:00:22.865Z,57.6
2022-10-29T00:01:35.368Z,57.6
2022-10-29T00:02:59.078Z,57.5
2022-10-29T00:03:51.884Z,57.5
2022-10-29T00:05:04.902Z,57.4
2022-10-29T00:06:17.168Z,57.4
2022-10-29T00:07:30.512Z,57.4
2022-10-29T00:08:32.983Z,57.4
2022-10-29T00:09:45.894Z,57.4
2022-10-29T00:10:58.216Z,57.2
2022-10-29T00:12:01.392Z,57.3
2022-10-29T00:13:13.699Z,57.4
2022-10-29T00:14:36.398Z,57.4
2022-10-29T00:15:28.918Z,57.4
2022-10-29T00:16:41.867Z,57.4
2022-10-29T00:17:54.574Z,57.4
2022-10-29T00:19:07.869Z,57.4
2022-10-29T00:20:10.445Z,57.4
2022-10-29T00:21:23.481Z,57.4
2022-10-29T00:22:35.776Z,57.4
2022-10-29T00:23:39.398Z,57.4
2022-10-29T00:24:51.691Z,57.4
2022-10-29T00:26:04.893Z,57.4
2022-10-29T00:27:07.362Z,57.4
2022-10-29T00:28:20.920Z,57.4
2022-10-29T00:29:33.320Z,57.4
2022-10-29T00:30:46.428Z,57.3
2022-10-29T00:31:48.930Z,57.4
2022-10-29T00:33:01.893Z,57.4
2022-10-29T00:34:14.321Z,57.4
2022-10-29T00:35:17.384Z,57.4
2022-10-29T00:36:29.769Z,57.4
2022-10-29T00:37:42.878Z,57.4
2022-10-29T00:38:55.245Z,57.5
2022-10-29T00:39:58.401Z,57.5
2022-10-29T00:41:10.877Z,57.5
2022-10-29T00:42:23.887Z,57.5
2022-10-29T00:43:26.372Z,57.5
2022-10-29T00:44:39.913Z,57.5
2022-10-29T00:45:52.279Z,57.5
2022-10-29T00:46:55.890Z,57.5
2022-10-29T00:48:08.218Z,57.5
2022-10-29T00:49:21.475Z,57.5
2022-10-29T00:50:33.788Z,57.5
2022-10-29T00:51:36.877Z,57.5
2022-10-29T00:52:49.370Z,57.5
2022-10-29T00:54:02.982Z,57.5
2022-10-29T00:55:05.448Z,57.5
2022-10-29T00:56:18.889Z,57.5
2022-10-29T00:57:31.291Z,57.5
2022-10-29T00:58:34.874Z,57.5
2022-10-29T01:01:00.363Z,57.5
2022-10-29T01:02:02.940Z,57.5
2022-10-29T01:03:16.416Z,57.5
2022-10-29T01:04:28.809Z,57.4
2022-10-29T01:05:41.950Z,57.4
2022-10-29T01:06:44.367Z,57.4
2022-10-29T01:07:57.396Z,57.4
2022-10-29T01:09:09.684Z,57.4
2022-10-29T01:10:12.921Z,57.4
2022-10-29T01:11:25.247Z,57.4
2022-10-29T01:12:58.663Z,57.4
2022-10-29T01:13:41.618Z,57.5
2022-10-29T01:14:53.966Z,57.4
2022-10-29T01:16:06.899Z,57.4
2022-10-29T01:17:19.274Z,57.4
2022-10-29T01:18:22.425Z,57.4
2022-10-29T01:19:44.506Z,57.3
2022-10-29T01:21:07.401Z,57.3
2022-10-29T01:21:50.088Z,57.4
2022-10-29T01:23:02.357Z,57.3
2022-10-29T01:24:15.385Z,57.3
2022-10-29T01:25:27.853Z,57.2
2022-10-29T01:26:30.927Z,57.2
2022-10-29T01:27:43.327Z,57.2
2022-10-29T01:28:56.404Z,57.2
2022-10-29T01:30:08.761Z,57.2
2022-10-29T01:31:11.939Z,57.2
2022-10-29T01:32:24.230Z,57.1
2022-10-29T01:33:37.432Z,57.2
2022-10-29T01:34:39.928Z,57.2
2022-10-29T01:35:52.921Z,57.2
2022-10-29T01:37:05.219Z,57.2
2022-10-29T01:38:18.428Z,57.2
2022-10-29T01:39:20.880Z,57.2
2022-10-29T01:40:33.887Z,57.2
2022-10-29T01:41:46.254Z,57.2
2022-10-29T01:42:49.404Z,57.2
2022-10-29T01:44:01.759Z,57.2
2022-10-29T01:45:14.976Z,57.2
2022-10-29T01:46:27.317Z,57.2
2022-10-29T01:47:50.443Z,57.2
2022-10-29T01:48:43.059Z,57.2
2022-10-29T01:49:56.403Z,57.2
2022-10-29T01:51:18.766Z,57.2
2022-10-29T01:52:12.405Z,57.2
2022-10-29T01:53:24.777Z,57.1
2022-10-29T01:54:27.956Z,57.0
2022-10-29T01:55:40.254Z,57.0
2022-10-29T01:56:53.917Z,57.0
2022-10-29T01:58:06.272Z,56.9
2022-10-29T01:59:18.066Z,56.9
2022-10-29T02:00:41.221Z,56.9
2022-10-29T02:01:35.046Z,57.0
2022-10-29T02:02:38.584Z,56.9
2022-10-29T02:03:51.896Z,56.9
2022-10-29T02:05:04.777Z,56.8
2022-10-29T02:06:07.913Z,56.8
2022-10-29T02:07:20.274Z,56.9
2022-10-29T02:08:33.413Z,56.8
2022-10-29T02:09:35.926Z,56.8
2022-10-29T02:10:48.893Z,56.8
2022-10-29T02:12:01.474Z,56.8
2022-10-29T02:13:14.949Z,56.9
2022-10-29T02:14:17.557Z,56.8
2022-10-29T02:15:30.909Z,56.8
2022-10-29T02:16:43.213Z,56.8
2022-10-29T02:17:46.423Z,56.8
2022-10-29T02:18:58.791Z,56.9
2022-10-29T02:20:11.945Z,56.9
2022-10-29T02:21:24.346Z,56.9
2022-10-29T02:22:27.454Z,56.8
2022-10-29T02:23:39.758Z,56.8
2022-10-29T02:24:52.919Z,56.8
2022-10-29T02:25:55.410Z,56.8
2022-10-29T02:27:08.443Z,56.8
2022-10-29T02:29:33.437Z,56.9
2022-10-29T02:30:35.860Z,56.8
2022-10-29T02:31:48.927Z,56.8
2022-10-29T02:33:01.235Z,56.8
2022-10-29T02:34:14.428Z,56.9
2022-10-29T02:35:16.844Z,56.8
2022-10-29T02:36:29.911Z,56.9
2022-10-29T02:37:42.274Z,56.8
2022-10-29T02:38:45.461Z,56.8
2022-10-29T02:40:07.878Z,56.9
2022-10-29T02:41:10.942Z,56.8
2022-10-29T02:42:13.407Z,56.8
2022-10-29T02:43:26.441Z,56.8
2022-10-29T02:44:38.716Z,56.8
2022-10-29T02:45:51.945Z,56.8
2022-10-29T02:46:54.359Z,56.8
2022-10-29T02:48:07.413Z,56.8
2022-10-29T02:49:19.711Z,56.8
2022-10-29T02:50:32.935Z,56.7
2022-10-29T02:51:35.353Z,56.7
2022-10-29T02:52:48.499Z,56.7
2022-10-29T02:54:00.824Z,56.7
2022-10-29T02:55:03.971Z,56.8
2022-10-29T02:56:16.286Z,56.7
2022-10-29T02:57:29.480Z,56.7
2022-10-29T02:58:41.794Z,56.7
2022-10-29T02:59:44.942Z,56.6
2022-10-29T03:00:57.255Z,56.7
2022-10-29T03:02:10.536Z,56.7
2022-10-29T03:03:13.049Z,56.7
2022-10-29T03:04:26.459Z,56.7
2022-10-29T03:05:38.760Z,56.7
2022-10-29T03:06:41.932Z,56.6
2022-10-29T03:07:54.262Z,56.7
2022-10-29T03:09:07.498Z,56.6
2022-10-29T03:10:19.802Z,56.6
2022-10-29T03:11:22.918Z,56.6
2022-10-29T03:12:35.294Z,56.6
2022-10-29T03:13:48.448Z,56.6
2022-10-29T03:14:50.919Z,56.5
2022-10-29T03:16:03.920Z,56.5
2022-10-29T03:17:16.331Z,56.5
2022-10-29T03:18:29.437Z,56.5
2022-10-29T03:19:31.858Z,56.5
2022-10-29T03:20:45.490Z,56.5
2022-10-29T03:21:57.956Z,56.5
2022-10-29T03:23:01.464Z,56.5
2022-10-29T03:24:13.792Z,56.4
2022-10-29T03:25:26.958Z,56.5
2022-10-29T03:26:39.282Z,56.4
2022-10-29T03:27:42.478Z,56.5
2022-10-29T03:28:54.790Z,56.4
2022-10-29T03:30:07.945Z,56.4
2022-10-29T03:31:10.378Z,56.4
2022-10-29T03:32:23.444Z,56.4
2022-10-29T03:33:35.728Z,56.3
2022-10-29T03:34:48.988Z,56.4
2022-10-29T03:35:51.421Z,56.4
2022-10-29T03:37:04.451Z,56.3
2022-10-29T03:38:17.209Z,56.3
2022-10-29T03:39:30.973Z,56.4
2022-10-29T03:40:33.455Z,56.3
2022-10-29T03:41:46.471Z,56.3
2022-10-29T03:43:08.641Z,56.3
2022-10-29T03:44:01.982Z,56.3
2022-10-29T03:45:14.368Z,56.3
2022-10-29T03:46:27.480Z,56.3
2022-10-29T03:47:29.875Z,56.3
2022-10-29T03:48:42.924Z,56.2
2022-10-29T03:49:55.274Z,56.1
2022-10-29T03:50:58.465Z,56.2
2022-10-29T03:52:10.760Z,56.1
2022-10-29T03:53:23.976Z,56.2
2022-10-29T03:54:36.257Z,56.1
2022-10-29T03:55:39.471Z,56.1
2022-10-29T03:56:51.790Z,56.1
2022-10-29T03:58:04.965Z,56.1
2022-10-29T03:59:07.405Z,56.1
2022-10-29T04:00:20.472Z,56.1
2022-10-29T04:01:33.081Z,56.1
2022-10-29T04:02:46.541Z,56.1
2022-10-29T04:03:49.089Z,56.1
2022-10-29T04:05:02.453Z,56.1
2022-10-29T04:06:24.691Z,56.1
2022-10-29T04:07:18.061Z,56.1
2022-10-29T04:08:30.428Z,56.1
2022-10-29T04:10:02.963Z,56.1
2022-10-29T04:10:55.455Z,56.1
2022-10-29T04:11:57.831Z,56.1
2022-10-29T04:13:11.002Z,56.0
2022-10-29T04:14:23.298Z,56.1
2022-10-29T04:15:36.447Z,56.0
2022-10-29T04:16:38.831Z,56.0
2022-10-29T04:17:51.990Z,56.0
2022-10-29T04:19:04.300Z,55.9
2022-10-29T04:20:14.515Z,56.0
2022-10-29T04:23:54.344Z,55.9
2022-10-29T04:28:17.771Z,55.8
2022-10-29T04:29:35.445Z,55.6
2022-10-29T04:30:37.822Z,55.5
2022-10-29T04:31:50.994Z,55.4
2022-10-29T04:33:03.311Z,55.4
2022-10-29T04:34:06.463Z,55.4
2022-10-29T04:35:18.734Z,55.4
2022-10-29T04:36:31.954Z,55.4
2022-10-29T04:37:44.283Z,55.4
2022-10-29T04:38:47.455Z,55.4
2022-10-29T04:39:59.819Z,55.5
2022-10-29T04:41:13.476Z,55.5
2022-10-29T04:42:15.867Z,55.5
2022-10-29T04:43:28.952Z,55.5
2022-10-29T04:44:41.220Z,55.5
2022-10-29T04:45:54.480Z,55.5
2022-10-29T04:46:57.161Z,55.5
2022-10-29T04:48:11.755Z,55.6
2022-10-29T04:49:14.490Z,55.6
2022-10-29T04:50:28.514Z,55.6
2022-10-29T04:51:40.967Z,55.6
2022-10-29T04:52:54.490Z,55.6
2022-10-29T04:53:57.951Z,55.6
2022-10-29T04:55:12.055Z,55.6
2022-10-29T04:56:15.124Z,55.6
2022-10-29T04:57:28.543Z,55.6
2022-10-29T04:58:41.184Z,55.6
2022-10-29T04:59:44.550Z,55.6
2022-10-29T05:00:56.742Z,55.6
2022-10-29T05:02:09.992Z,55.6
2022-10-29T05:03:22.304Z,55.6
2022-10-29T05:04:25.484Z,55.6
2022-10-29T05:05:37.929Z,55.5
2022-10-29T05:06:51.500Z,55.6
2022-10-29T05:07:53.998Z,55.6
2022-10-29T05:09:07.005Z,55.6
2022-10-29T05:10:19.409Z,55.6
2022-10-29T05:11:32.471Z,55.6
2022-10-29T05:12:34.882Z,55.6
2022-10-29T05:13:47.982Z,55.6
2022-10-29T05:15:00.344Z,55.6
2022-10-29T05:16:03.493Z,55.6
2022-10-29T05:17:15.870Z,55.6
2022-10-29T05:18:28.995Z,55.6
2022-10-29T05:19:41.315Z,55.6
2022-10-29T05:20:44.465Z,55.6
2022-10-29T05:21:56.799Z,55.6
2022-10-29T05:23:09.983Z,55.6
2022-10-29T05:24:12.387Z,55.6
2022-10-29T05:25:25.493Z,55.6
2022-10-29T05:26:37.880Z,55.6
2022-10-29T05:27:50.971Z,55.6
2022-10-29T05:28:53.420Z,55.6
2022-10-29T05:30:06.471Z,55.6
2022-10-29T05:31:18.860Z,55.6
2022-10-29T05:32:22.077Z,55.6
2022-10-29T05:33:34.474Z,55.6
2022-10-29T05:34:47.521Z,55.6
2022-10-29T05:35:59.857Z,55.6
2022-10-29T05:37:03.009Z,55.5
2022-10-29T05:38:15.395Z,55.6
2022-10-29T05:39:28.512Z,55.6
2022-10-29T05:40:30.972Z,55.6
2022-10-29T05:41:44.012Z,55.6
2022-10-29T05:42:56.708Z,55.6
2022-10-29T05:44:10.005Z,55.6
2022-10-29T05:45:12.487Z,55.6
2022-10-29T05:46:25.502Z,55.5
2022-10-29T05:47:37.852Z,55.6
2022-10-29T05:48:40.975Z,55.6
2022-10-29T05:49:53.332Z,55.6
2022-10-29T05:51:06.502Z,55.6
2022-10-29T05:52:18.867Z,55.6
2022-10-29T05:53:21.981Z,55.6
2022-10-29T05:54:34.380Z,55.7
2022-10-29T05:55:47.511Z,55.6
2022-10-29T05:56:49.899Z,55.6
2022-10-29T05:58:02.966Z,55.4
2022-10-29T05:59:15.151Z,55.1
2022-10-29T06:00:28.045Z,54.8
2022-10-29T06:01:30.600Z,54.6
2022-10-29T06:02:43.537Z,54.3
2022-10-29T06:03:55.790Z,54.1
2022-10-29T06:05:08.969Z,53.8
2022-10-29T06:06:11.368Z,53.5
2022-10-29T06:07:24.506Z,53.3
2022-10-29T06:08:36.661Z,53.1
2022-10-29T06:09:39.506Z,52.8
2022-10-29T06:10:51.622Z,52.7
2022-10-29T06:12:04.509Z,52.6
2022-10-29T06:13:16.668Z,52.7
2022-10-29T06:14:20.038Z,52.8
2022-10-29T06:15:32.389Z,52.9
2022-10-29T06:16:45.511Z,53.0
2022-10-29T06:17:47.846Z,53.1
2022-10-29T06:19:01.030Z,53.4
2022-10-29T06:20:13.267Z,53.5
2022-10-29T06:21:26.036Z,53.5
2022-10-29T06:22:28.587Z,53.3
2022-10-29T06:23:41.503Z,53.3
2022-10-29T06:24:53.705Z,53.1
2022-10-29T06:26:06.527Z,52.9
2022-10-29T06:27:08.821Z,52.8
2022-10-29T06:28:21.563Z,52.5
2022-10-29T06:29:33.633Z,52.4
2022-10-29T06:30:36.535Z,52.2
2022-10-29T06:31:48.673Z,52.0
2022-10-29T06:33:01.626Z,51.9
2022-10-29T06:34:13.688Z,51.7
2022-10-29T06:35:16.503Z,51.5
2022-10-29T06:36:28.637Z,51.3
2022-10-29T06:37:41.523Z,51.2
2022-10-29T06:38:53.699Z,51.3
2022-10-29T06:39:57.013Z,51.4
2022-10-29T06:41:09.263Z,51.6
2022-10-29T06:42:22.525Z,51.7
2022-10-29T06:43:24.860Z,51.9
2022-10-29T06:44:38.001Z,52.1
2022-10-29T06:45:50.303Z,52.3
2022-10-29T06:46:53.526Z,52.4
2022-10-29T06:48:05.825Z,52.6
2022-10-29T06:49:19.033Z,52.8
2022-10-29T06:50:31.313Z,52.9
2022-10-29T06:51:34.510Z,53.1
2022-10-29T06:52:47.012Z,53.2
2022-10-29T06:54:00.042Z,53.3
2022-10-29T06:55:02.424Z,53.4
2022-10-29T06:56:15.530Z,53.5
2022-10-29T06:57:27.898Z,53.6
2022-10-29T06:58:41.046Z,53.6
2022-10-29T06:59:43.449Z,53.7
2022-10-29T07:02:08.697Z,53.9
2022-10-29T07:03:12.061Z,54.0
2022-10-29T07:04:24.377Z,54.0
2022-10-29T07:05:37.542Z,54.1
2022-10-29T07:06:49.701Z,54.1
2022-10-29T07:08:02.516Z,54.2
2022-10-29T07:09:04.955Z,54.3
2022-10-29T07:10:18.014Z,54.3
2022-10-29T07:11:20.418Z,54.3
2022-10-29T07:12:33.542Z,54.3
2022-10-29T07:13:45.923Z,54.4
2022-10-29T07:14:59.051Z,54.4
2022-10-29T07:16:01.456Z,54.4
2022-10-29T07:17:14.556Z,54.4
2022-10-29T07:18:26.891Z,54.4
2022-10-29T07:19:30.028Z,53.5
2022-10-29T07:20:42.388Z,53.0
2022-10-29T07:21:55.546Z,51.4
2022-10-29T07:23:07.868Z,50.8
2022-10-29T07:24:21.558Z,50.2
2022-10-29T07:25:43.789Z,49.3
2022-10-29T07:26:37.080Z,49.1
2022-10-29T07:27:39.730Z,48.6
2022-10-29T07:28:53.060Z,47.9
2022-10-29T07:30:05.287Z,47.2
2022-10-29T07:31:08.529Z,47.3
2022-10-29T07:32:20.692Z,46.8
2022-10-29T07:33:33.742Z,46.4
2022-10-29T07:34:45.979Z,46.2
2022-10-29T07:35:49.060Z,46.4
2022-10-29T07:37:01.336Z,46.2
2022-10-29T07:38:14.581Z,45.7
2022-10-29T07:39:16.943Z,45.6
2022-10-29T07:40:49.557Z,45.6
2022-10-29T07:41:42.115Z,45.9
2022-10-29T07:42:55.340Z,45.9
2022-10-29T07:43:57.878Z,45.8
2022-10-29T07:45:11.068Z,45.3
2022-10-29T07:46:23.310Z,45.6
2022-10-29T07:47:26.575Z,45.6
2022-10-29T07:48:38.804Z,45.6
2022-10-29T07:49:52.098Z,45.5
2022-10-29T07:51:04.301Z,45.7
2022-10-29T07:52:07.574Z,45.4
2022-10-29T07:53:19.796Z,45.5
2022-10-29T07:54:34.096Z,45.3
2022-10-29T07:55:36.461Z,45.6
2022-10-29T07:56:49.624Z,45.5
2022-10-29T07:58:01.827Z,45.5
2022-10-29T07:59:05.070Z,45.6
2022-10-29T08:00:17.250Z,45.4
2022-10-29T08:01:30.243Z,45.4
2022-10-29T08:02:42.675Z,45.5
2022-10-29T08:03:46.074Z,45.5
2022-10-29T08:04:58.361Z,45.5
2022-10-29T08:06:11.602Z,45.4
2022-10-29T08:07:13.877Z,45.6
2022-10-29T08:08:27.080Z,45.6
2022-10-29T08:09:39.331Z,45.6
2022-10-29T08:10:52.567Z,45.6
2022-10-29T08:11:54.868Z,45.5
2022-10-29T08:13:08.073Z,45.4
2022-10-29T08:14:22.745Z,45.5
2022-10-29T08:15:26.093Z,45.6
2022-10-29T08:16:38.271Z,45.2
2022-10-29T08:17:51.060Z,45.4
2022-10-29T08:18:53.337Z,45.6
2022-10-29T08:20:06.113Z,45.7
2022-10-29T08:21:18.340Z,45.8
2022-10-29T08:22:31.571Z,45.4
2022-10-29T08:23:33.855Z,45.8
2022-10-29T08:24:47.078Z,45.8
2022-10-29T08:25:59.258Z,45.9
2022-10-29T08:27:02.583Z,45.9
2022-10-29T08:28:14.821Z,46.1
2022-10-29T08:29:28.099Z,46.1
2022-10-29T08:30:40.331Z,46.1
2022-10-29T08:31:43.607Z,46.0
2022-10-29T08:32:56.092Z,46.2
2022-10-29T08:34:11.204Z,46.2
2022-10-29T08:35:13.857Z,46.2
2022-10-29T08:36:27.103Z,46.3
2022-10-29T08:37:39.274Z,45.8
2022-10-29T08:38:42.616Z,45.7
2022-10-29T08:39:54.854Z,46.0
2022-10-29T08:41:08.064Z,46.5
2022-10-29T08:42:10.388Z,46.8
2022-10-29T08:43:24.562Z,47.0
2022-10-29T08:44:36.801Z,47.0
2022-10-29T08:45:49.598Z,47.0
2022-10-29T08:46:51.950Z,47.0
2022-10-29T08:48:05.079Z,46.2
2022-10-29T08:49:17.373Z,46.2
2022-10-29T08:50:30.592Z,46.8
2022-10-29T08:51:32.902Z,46.6
2022-10-29T08:52:53.430Z,46.9
2022-10-29T08:54:25.604Z,46.9
2022-10-29T08:55:03.448Z,46.9
2022-10-29T08:56:16.587Z,46.9
2022-10-29T08:57:28.754Z,46.5
2022-10-29T08:58:32.077Z,46.7
2022-10-29T08:59:44.318Z,46.4
2022-10-29T09:00:57.179Z,46.3
2022-10-29T09:01:59.628Z,46.6
2022-10-29T09:03:12.595Z,46.2
2022-10-29T09:04:24.768Z,46.5
2022-10-29T09:05:38.096Z,46.5
2022-10-29T09:06:40.368Z,46.2
2022-10-29T09:07:55.240Z,46.2
2022-10-29T09:08:59.652Z,46.3
2022-10-29T09:10:12.575Z,46.3
2022-10-29T09:11:24.747Z,46.3
2022-10-29T09:12:37.635Z,46.3
2022-10-29T09:13:40.000Z,46.5
2022-10-29T09:14:53.088Z,46.0
2022-10-29T09:16:05.326Z,46.1
2022-10-29T09:17:11.464Z,46.4
2022-10-29T09:18:26.831Z,46.7
2022-10-29T09:19:30.117Z,46.4
2022-10-29T09:20:42.369Z,46.2
2022-10-29T09:21:56.188Z,46.6
2022-10-29T09:22:58.459Z,46.9
2022-10-29T09:24:11.092Z,46.9
2022-10-29T09:25:23.115Z,47.1
2022-10-29T09:26:36.155Z,46.6
2022-10-29T09:27:38.466Z,46.5
2022-10-29T09:28:51.597Z,46.9
2022-10-29T09:30:03.896Z,47.1
2022-10-29T09:31:17.114Z,47.4
2022-10-29T09:32:19.522Z,47.5
2022-10-29T09:33:32.614Z,47.5
2022-10-29T09:34:44.946Z,47.8
2022-10-29T09:35:48.624Z,47.8
2022-10-29T09:37:00.987Z,48.2
2022-10-29T09:38:24.130Z,48.3
2022-10-29T09:39:18.122Z,48.4
2022-10-29T09:40:33.095Z,48.8
2022-10-29T09:41:45.431Z,49.0
2022-10-29T09:42:48.611Z,49.0
2022-10-29T09:44:00.976Z,49.1
2022-10-29T09:45:14.166Z,49.2
2022-10-29T09:46:16.593Z,49.1
2022-10-29T09:47:29.611Z,48.9
2022-10-29T09:48:41.890Z,48.8
2022-10-29T09:49:55.129Z,48.6
2022-10-29T09:50:57.480Z,48.4
2022-10-29T09:52:10.648Z,48.3
2022-10-29T09:53:22.898Z,48.0
2022-10-29T09:54:36.119Z,47.8
2022-10-29T09:55:38.456Z,47.6
2022-10-29T09:56:55.698Z,47.5
2022-10-29T09:57:58.430Z,47.4
2022-10-29T09:59:11.622Z,47.2
2022-10-29T10:00:43.553Z,47.1
2022-10-29T10:01:27.233Z,47.0
2022-10-29T10:02:39.567Z,46.8
2022-10-29T10:03:52.683Z,46.7
2022-10-29T10:04:54.991Z,46.6
2022-10-29T10:06:08.165Z,46.4
2022-10-29T10:07:20.353Z,46.3
2022-10-29T10:08:33.124Z,46.1
2022-10-29T10:09:35.449Z,46.1
2022-10-29T10:10:48.624Z,46.0
2022-10-29T10:12:00.782Z,45.9
2022-10-29T10:13:17.021Z,45.9
2022-10-29T10:14:20.599Z,45.8
2022-10-29T10:15:33.607Z,45.7
2022-10-29T10:16:35.814Z,45.7
2022-10-29T10:17:49.153Z,45.6
2022-10-29T10:19:01.306Z,45.6
2022-10-29T10:20:14.151Z,45.5
2022-10-29T10:21:16.359Z,45.5
2022-10-29T10:22:39.185Z,45.5
2022-10-29T10:23:41.470Z,45.4
2022-10-29T10:24:44.638Z,45.3
2022-10-29T10:26:00.398Z,45.3
2022-10-29T10:27:07.140Z,45.2
2022-10-29T10:28:19.255Z,45.3
2022-10-29T10:29:32.139Z,45.2
2022-10-29T10:30:34.422Z,45.2
2022-10-29T10:31:47.145Z,45.1
2022-10-29T10:32:59.401Z,45.1
2022-10-29T10:34:12.646Z,45.1
2022-10-29T10:35:15.138Z,45.1
2022-10-29T10:36:28.128Z,45.1
2022-10-29T10:37:40.242Z,45.1
2022-10-29T10:38:43.168Z,45.0
2022-10-29T10:39:55.349Z,45.0
2022-10-29T10:41:08.776Z,45.0
2022-10-29T10:42:20.976Z,45.0
2022-10-29T10:43:24.166Z,44.9
2022-10-29T10:44:36.277Z,44.9
2022-10-29T10:45:49.193Z,44.9
2022-10-29T10:47:01.400Z,44.9
2022-10-29T10:48:05.019Z,44.8
2022-10-29T10:49:17.216Z,44.8
2022-10-29T10:50:30.173Z,44.8
2022-10-29T10:51:32.359Z,44.8
2022-10-29T10:52:45.216Z,44.8
2022-10-29T10:53:57.449Z,44.7
2022-10-29T10:55:10.668Z,44.7
2022-10-29T10:56:12.988Z,44.7
2022-10-29T10:57:25.807Z,44.6
2022-10-29T10:58:38.022Z,44.6
2022-10-29T10:59:50.676Z,44.6
2022-10-29T11:00:52.930Z,44.5
2022-10-29T11:02:05.751Z,44.5
2022-10-29T11:03:17.930Z,44.5
2022-10-29T11:04:21.162Z,44.4
2022-10-29T11:05:33.229Z,44.4
2022-10-29T11:06:46.143Z,44.3
2022-10-29T11:07:58.473Z,44.2
2022-10-29T11:09:01.689Z,44.2
2022-10-29T11:10:13.695Z,44.1
2022-10-29T11:11:26.659Z,44.0
2022-10-29T11:12:38.695Z,43.9
2022-10-29T11:13:41.674Z,43.9
2022-10-29T11:14:53.714Z,43.8
2022-10-29T11:16:06.686Z,43.7
2022-10-29T11:18:35.144Z,43.5
2022-10-29T11:19:37.359Z,43.4
2022-10-29T11:20:40.199Z,43.4
2022-10-29T11:21:52.188Z,43.3
2022-10-29T11:23:05.191Z,43.3
2022-10-29T11:24:26.913Z,43.1
2022-10-29T11:25:20.207Z,43.1
2022-10-29T11:26:32.194Z,43.0
2022-10-29T11:27:45.211Z,43.0
2022-10-29T11:28:57.194Z,42.9
2022-10-29T11:30:00.213Z,42.8
2022-10-29T11:31:12.189Z,42.8
2022-10-29T11:32:25.240Z,42.7
2022-10-29T11:33:27.472Z,42.6
2022-10-29T11:34:40.205Z,42.6
2022-10-29T11:35:53.968Z,42.5
2022-10-29T11:36:59.228Z,42.5
2022-10-29T11:38:11.184Z,42.5
2022-10-29T11:39:24.189Z,42.3
2022-10-29T11:40:26.296Z,42.3
2022-10-29T11:41:39.242Z,42.2
2022-10-29T11:42:51.174Z,42.2
2022-10-29T11:44:03.701Z,42.2
2022-10-29T11:45:05.829Z,42.1
2022-10-29T11:46:18.746Z,42.1
2022-10-29T11:47:30.625Z,42.0
2022-10-29T11:48:43.211Z,42.0
2022-10-29T11:49:45.323Z,41.9
2022-10-29T11:50:58.211Z,41.9
2022-10-29T11:52:10.148Z,41.8
2022-10-29T11:53:22.710Z,41.8
2022-10-29T11:54:24.734Z,41.7
2022-10-29T11:55:37.725Z,41.7
2022-10-29T11:56:49.645Z,41.7
2022-10-29T11:58:02.215Z,41.6
2022-10-29T11:59:04.301Z,41.6
2022-10-29T12:00:17.224Z,41.5
2022-10-29T12:01:30.197Z,41.5
2022-10-29T12:02:43.224Z,41.4
2022-10-29T12:03:45.350Z,41.3
2022-10-29T12:04:58.232Z,41.3
2022-10-29T12:06:10.169Z,41.2
2022-10-29T12:07:13.239Z,41.1
2022-10-29T12:08:25.127Z,41.0
2022-10-29T12:09:37.707Z,41.0
2022-10-29T12:10:49.608Z,40.9
2022-10-29T12:11:52.242Z,40.9
2022-10-29T12:13:04.126Z,40.8
2022-10-29T12:14:16.706Z,40.8
2022-10-29T12:15:28.623Z,40.7
2022-10-29T12:16:31.751Z,40.8
2022-10-29T12:17:43.753Z,40.7
2022-10-29T12:18:56.749Z,40.7
2022-10-29T12:20:08.618Z,40.7
2022-10-29T12:21:11.282Z,40.7
2022-10-29T12:22:23.171Z,40.7
2022-10-29T12:23:35.730Z,40.7
2022-10-29T12:24:47.598Z,40.6
2022-10-29T12:25:50.223Z,40.6
2022-10-29T12:27:02.108Z,40.6
2022-10-29T12:28:14.712Z,40.6
2022-10-29T12:29:26.595Z,40.5
2022-10-29T12:30:39.419Z,40.5
2022-10-29T12:31:41.497Z,40.5
2022-10-29T12:32:54.516Z,40.5
2022-10-29T12:34:06.561Z,40.4
2022-10-29T12:35:19.216Z,40.4
2022-10-29T12:36:21.241Z,40.4
2022-10-29T12:37:34.256Z,40.3
2022-10-29T12:38:36.286Z,40.3
2022-10-29T12:39:48.718Z,40.3
2022-10-29T12:41:00.583Z,40.3
2022-10-29T12:42:13.268Z,40.3
2022-10-29T12:43:15.357Z,40.3
2022-10-29T12:44:28.338Z,40.3
2022-10-29T12:45:59.614Z,40.3
2022-10-29T12:46:52.251Z,40.3
2022-10-29T12:47:54.509Z,40.3
2022-10-29T12:49:07.245Z,40.4
2022-10-29T12:50:19.113Z,40.4
2022-10-29T12:51:31.735Z,40.4
2022-10-29T12:52:33.797Z,40.4
2022-10-29T12:53:46.275Z,40.4
2022-10-29T12:54:58.152Z,40.4
2022-10-29T12:56:10.761Z,40.4
2022-10-29T12:57:12.754Z,40.3
2022-10-29T12:58:25.259Z,40.4
2022-10-29T12:59:37.131Z,40.3
2022-10-29T13:00:49.831Z,40.3
2022-10-29T13:02:11.778Z,40.2
2022-10-29T13:03:05.464Z,40.2
2022-10-29T13:04:17.398Z,40.2
2022-10-29T13:05:29.751Z,40.1
2022-10-29T13:06:31.795Z,40.0
2022-10-29T13:07:44.265Z,39.9
2022-10-29T13:08:56.069Z,39.8
2022-10-29T13:10:08.976Z,39.7
2022-10-29T13:11:11.112Z,39.6
2022-10-29T13:12:23.772Z,39.6
2022-10-29T13:13:35.601Z,39.6
2022-10-29T13:14:48.244Z,39.5
2022-10-29T13:16:09.698Z,39.5
2022-10-29T13:17:02.872Z,39.4
2022-10-29T13:18:14.668Z,39.3
2022-10-29T13:19:27.549Z,39.3
2022-10-29T13:20:29.508Z,39.3
2022-10-29T13:21:42.243Z,39.3
2022-10-29T13:22:54.019Z,39.3
2022-10-29T13:24:16.305Z,39.3
2022-10-29T13:25:08.625Z,39.2
2022-10-29T13:26:21.266Z,39.2
2022-10-29T13:27:33.011Z,39.1
2022-10-29T13:28:45.784Z,39.0
2022-10-29T13:29:47.775Z,39.1
2022-10-29T13:31:00.288Z,39.0
2022-10-29T13:32:12.023Z,39.0
2022-10-29T13:33:24.776Z,38.9
2022-10-29T13:34:26.710Z,38.9
2022-10-29T13:35:39.289Z,38.9
2022-10-29T13:36:51.022Z,38.7
2022-10-29T13:38:03.791Z,38.6
2022-10-29T13:39:07.303Z,38.6
2022-10-29T13:40:20.579Z,38.6
2022-10-29T13:41:32.600Z,38.6
2022-10-29T13:42:35.459Z,38.6
2022-10-29T13:43:47.203Z,38.6
2022-10-29T13:44:59.779Z,38.6
2022-10-29T13:46:11.601Z,38.6
2022-10-29T13:47:14.281Z,38.6
2022-10-29T13:48:26.035Z,38.6
2022-10-29T13:49:38.810Z,38.7
2022-10-29T13:50:50.569Z,38.7
2022-10-29T13:51:53.349Z,38.8
2022-10-29T13:53:07.921Z,38.8
2022-10-29T13:54:13.348Z,38.8
2022-10-29T13:55:25.232Z,38.6
2022-10-29T13:56:37.778Z,38.5
2022-10-29T13:57:39.700Z,38.5
2022-10-29T13:58:52.278Z,38.5
2022-10-29T14:00:04.016Z,38.5
2022-10-29T14:01:16.919Z,38.6
2022-10-29T14:02:19.256Z,38.6
2022-10-29T14:03:31.803Z,38.7
2022-10-29T14:04:43.569Z,38.8
2022-10-29T14:05:56.295Z,38.8
2022-10-29T14:06:58.269Z,38.8
2022-10-29T14:08:10.796Z,38.8
2022-10-29T14:09:22.566Z,38.9
2022-10-29T14:10:26.007Z,39.0
2022-10-29T14:11:37.787Z,39.0
2022-10-29T14:12:50.298Z,39.1
2022-10-29T14:14:02.121Z,39.1
2022-10-29T14:15:04.756Z,39.2
2022-10-29T14:16:16.588Z,39.2
2022-10-29T14:17:29.294Z,39.2
2022-10-29T14:18:41.101Z,39.2
2022-10-29T14:19:44.298Z,39.2
2022-10-29T14:20:56.102Z,39.2
2022-10-29T14:22:08.821Z,39.1
2022-10-29T14:23:10.849Z,39.1
2022-10-29T14:24:23.306Z,39.2
2022-10-29T14:25:35.227Z,39.2
2022-10-29T14:26:47.812Z,39.3
2022-10-29T14:27:49.845Z,39.4
2022-10-29T14:29:02.279Z,39.4
2022-10-29T14:30:14.101Z,39.5
2022-10-29T14:31:26.788Z,39.5
2022-10-29T14:32:30.031Z,39.6
2022-10-29T14:33:42.800Z,39.7
2022-10-29T14:34:54.665Z,39.9
2022-10-29T14:35:57.271Z,39.9
2022-10-29T14:37:09.134Z,40.0
2022-10-29T14:38:21.804Z,40.1
2022-10-29T14:39:28.739Z,40.2
2022-10-29T14:40:39.807Z,40.3
2022-10-29T14:42:11.236Z,40.3
2022-10-29T14:42:55.190Z,40.4
2022-10-29T14:44:07.552Z,40.5
2022-10-29T14:45:20.280Z,40.5
2022-10-29T14:46:22.466Z,40.6
2022-10-29T14:47:35.323Z,40.7
2022-10-29T14:48:47.213Z,40.8
2022-10-29T14:50:00.170Z,40.8
2022-10-29T14:51:02.526Z,40.8
2022-10-29T14:52:15.287Z,41.0
2022-10-29T14:53:27.145Z,41.0
2022-10-29T14:54:39.802Z,41.1
2022-10-29T14:55:41.899Z,41.1
2022-10-29T14:56:54.817Z,41.1
2022-10-29T14:58:06.660Z,41.2
2022-10-29T14:59:09.543Z,41.3
2022-10-29T15:00:21.454Z,41.3
2022-10-29T15:01:34.461Z,41.3
2022-10-29T15:02:46.652Z,41.4
2022-10-29T15:03:49.826Z,41.4
2022-10-29T15:05:11.430Z,41.4
2022-10-29T15:06:14.779Z,41.5
2022-10-29T15:07:16.868Z,41.5
2022-10-29T15:08:29.787Z,41.6
2022-10-29T15:09:41.739Z,41.6
2022-10-29T15:10:54.318Z,41.6
2022-10-29T15:11:56.381Z,41.6
2022-10-29T15:13:09.296Z,41.7
2022-10-29T15:14:21.249Z,41.7
2022-10-29T15:15:34.339Z,41.7
2022-10-29T15:16:38.420Z,41.7
2022-10-29T15:17:54.669Z,41.8
2022-10-29T15:18:56.952Z,41.8
2022-10-29T15:20:09.838Z,41.9
2022-10-29T15:21:21.745Z,41.9
2022-10-29T15:22:24.842Z,41.9
2022-10-29T15:23:36.837Z,41.9
2022-10-29T15:24:49.292Z,42.0
2022-10-29T15:26:01.219Z,42.0
2022-10-29T15:27:04.335Z,42.0
2022-10-29T15:28:16.282Z,42.1
2022-10-29T15:29:33.942Z,42.1
2022-10-29T15:30:36.958Z,42.1
2022-10-29T15:31:49.808Z,42.2
2022-10-29T15:32:51.887Z,42.2
2022-10-29T15:34:04.439Z,42.2
2022-10-29T15:35:16.371Z,42.2
2022-10-29T15:36:29.336Z,42.2
2022-10-29T15:37:31.410Z,42.3
2022-10-29T15:38:48.062Z,42.4
2022-10-29T15:39:53.310Z,42.3